Terminal Aerodrome Forecast
Issued by NWS

Home | Current Version | Previous Version | Text Only | Print | Product List | Glossary On
Versions: 1 2 3 4 5 6 7 8 9 10 11 12 13 14 15 16 17 18 19
000
FTUS44 KTSA 250839 AAA
TAFBVO
TAF AMD
KBVO 250839Z 2509/2606 34010KT P6SM VCTS SCT025CB BKN250
      TEMPO 2509/2511 4SM TSRA BKN015CB
     FM251100 18010KT P6SM BKN020
     FM251400 18010G17KT P6SM OVC025
     FM251800 18013G21KT P6SM OVC040
     FM260200 18012KT P6SM OVC100=

USA.gov is the U.S. government's official web portal to all federal, state and local government web resources and services.